Terminal Aerodrome Forecast
Issued by NWS Albuquerque, NM

Home | Current Version | Previous Version | Text Only | Print | Product List | Glossary On
Versions: 1 2 3 4 5 6 7 8 9 10 11 12
000
FTUS45 KABQ 012300
TAFABQ
TAF
KABQ 012320Z 0200/0224 26008KT P6SM FEW090
     FM020200 32006KT P6SM SKC
     FM020700 36006KT P6SM SKC
     FM021500 VRB06KT P6SM FEW250
     FM021900 22008KT P6SM FEW090=

USA.gov is the U.S. government's official web portal to all federal, state and local government web resources and services.